Latest Weather Observations for Nambour

IDQ60801

Issued at 9:02 am EST Saturday 30 July 2016 (issued every 30 minutes, with the page automatically refreshed every 10 minutes)

About weather observations | Map of weather stations | Latest weather observations for QLD | Other Formats
Station Details ID: 040988 Name: NAMBOUR DAFF - HILLSIDE Lat: -26.64 Lon: 152.94 Height: 53.24 m
Data from the previous 72 hours. | See also: Recent months at Nambour
Date/Time
EST
Temp
°C
App
Temp
°C
Dew
Point
°C
Rel
Hum
%
Delta-T
°C
Wind Press
QNH
hPa
Press
MSL
hPa
Rain since
9am
mm
Dir  Spd
km/h
Gust
km/h
Spd
kts
Gust
kts
30/09:00am 17.0 17.3 10.8 67 3.3 CALM 0 2 0 1 1021.5 1021.5 0.0
30/08:30am 14.5 14.5 9.7 73 2.5 CALM 0 0 0 0 1021.3 1021.3 0.0
30/08:00am 12.7 12.8 10.2 85 1.3 CALM 0 0 0 0 1021.2 1021.2 0.0
30/07:30am 10.5 10.4 9.3 92 0.6 CALM 0 0 0 0 1020.8 1020.8 0.0
30/07:00am 8.9 8.4 8.0 94 0.4 CALM 0 0 0 0 1020.5 1020.5 0.0
30/06:30am 8.3 7.7 7.2 93 0.5 CALM 0 0 0 0 1020.4 1020.4 0.0
30/06:00am 8.7 8.2 7.8 94 0.4 CALM 0 0 0 0 1020.2 1020.2 0.0
30/05:30am 9.4 9.1 8.6 95 0.4 CALM 0 0 0 0 1020.0 1020.0 0.0
30/05:00am 9.3 8.9 8.4 94 0.4 CALM 0 0 0 0 1019.7 1019.7 0.0
30/04:30am 10.0 9.8 9.2 95 0.4 CALM 0 0 0 0 1019.6 1019.6 0.0
30/04:00am 11.0 11.2 10.4 96 0.3 CALM 0 0 0 0 1019.6 1019.6 0.0
30/03:30am 9.8 9.6 9.0 95 0.4 CALM 0 4 0 2 1019.8 1019.8 0.0
30/03:00am 10.1 10.0 9.3 95 0.4 CALM 0 4 0 2 1019.9 1019.9 0.0
30/02:30am 10.8 10.9 10.0 95 0.4 CALM 0 0 0 0 1020.0 1020.0 0.0
30/02:00am 10.4 10.3 9.5 94 0.4 CALM 0 0 0 0 1020.1 1020.1 0.0
30/01:30am 10.5 10.4 9.6 94 0.5 CALM 0 0 0 0 1020.5 1020.5 0.0
30/01:00am 10.7 10.6 9.6 93 0.6 CALM 0 0 0 0 1020.9 1020.9 0.0
30/12:30am 11.1 11.2 10.2 94 0.5 CALM 0 0 0 0 1021.0 1021.0 0.0
30/12:00am 11.2 11.3 10.3 94 0.5 CALM 0 0 0 0 1021.2 1021.2 0.0
 
Date/Time
EST
Temp
°C
App
Temp
°C
Dew
Point
°C
Rel
Hum
%
Delta-T
°C
Wind Press
QNH
hPa
Press
MSL
hPa
Rain since
9am
mm
Dir  Spd
km/h
Gust
km/h
Spd
kts
Gust
kts
29/11:30pm 11.1 11.1 9.9 92 0.6 CALM 0 0 0 0 1021.3 1021.3 0.0
29/11:00pm 11.3 11.4 10.0 92 0.7 CALM 0 0 0 0 1021.4 1021.4 0.0
29/10:30pm 11.2 11.2 9.8 91 0.7 CALM 0 0 0 0 1021.4 1021.4 0.0
29/10:00pm 11.7 11.8 10.3 91 0.7 CALM 0 0 0 0 1021.4 1021.4 0.0
29/09:30pm 11.9 12.0 10.3 90 0.8 CALM 0 0 0 0 1021.4 1021.4 0.0
29/09:00pm 12.2 12.2 9.9 86 1.2 CALM 0 0 0 0 1021.3 1021.3 0.0
29/08:30pm 12.6 12.7 10.1 85 1.3 CALM 0 0 0 0 1021.2 1021.2 0.0
29/08:00pm 12.9 12.9 9.9 82 1.5 CALM 0 0 0 0 1021.1 1021.1 0.0
29/07:30pm 13.3 13.4 10.1 81 1.7 CALM 0 0 0 0 1020.9 1020.9 0.0
29/07:00pm 13.6 13.5 9.6 77 2.0 CALM 0 2 0 1 1020.7 1020.7 0.0
29/06:30pm 14.1 14.1 9.7 75 2.3 CALM 0 0 0 0 1020.5 1020.5 0.0
29/06:00pm 15.4 15.3 9.5 68 3.0 CALM 0 2 0 1 1020.3 1020.3 0.0
29/05:30pm 16.9 16.8 9.6 62 3.8 CALM 0 0 0 0 1020.1 1020.1 0.0
29/05:00pm 18.5 17.3 9.6 56 4.7 ENE 6 9 3 5 1019.9 1019.9 0.0
29/04:30pm 19.6 17.7 9.2 51 5.5 ENE 9 13 5 7 1019.9 1019.9 0.0
29/04:00pm 20.6 19.2 9.5 49 5.9 ENE 7 13 4 7 1019.7 1019.7 0.0
29/03:30pm 21.1 19.7 9.7 48 6.1 ENE 7 11 4 6 1019.7 1019.7 0.0
29/03:00pm 20.1 18.2 9.1 49 5.8 ENE 9 15 5 8 1019.8 1019.8 0.0
29/02:30pm 21.5 19.2 9.1 45 6.6 ENE 11 17 6 9 1019.9 1019.9 0.0
29/02:00pm 22.1 20.3 7.9 40 7.4 NNE 7 13 4 7 1020.2 1020.2 0.0
29/01:30pm 22.1 19.9 7.9 40 7.4 NE 9 15 5 8 1020.5 1020.5 0.0
29/01:00pm 22.4 20.7 9.9 45 6.8 ENE 9 15 5 8 1020.8 1020.8 0.0
29/12:30pm 22.4 21.4 8.9 42 7.2 ENE 4 9 2 5 1021.2 1021.2 0.0
29/12:00pm 21.5 19.7 7.3 40 7.3 E 6 15 3 8 1021.7 1021.7 0.0
29/11:30am 22.2 21.3 9.4 44 6.9 ENE 4 11 2 6 1022.2 1022.2 0.0
29/11:00am 21.5 19.8 7.7 41 7.1 E 6 13 3 7 1022.8 1022.8 0.0
29/10:30am 21.5 19.9 8.1 42 7.0 E 6 9 3 5 1022.9 1022.9 0.0
29/10:00am 21.1 19.5 8.0 43 6.8 ESE 6 9 3 5 1023.4 1023.4 0.0
29/09:30am 20.4 19.6 11.1 55 5.1 ENE 6 7 3 4 1023.5 1023.5 0.0
29/09:00am 19.2 19.8 13.2 68 3.4 NE 2 6 1 3 1023.5 1023.5 0.0
29/08:30am 15.9 16.4 11.5 75 2.4 CALM 0 0 0 0 1023.3 1023.3 0.0
29/08:00am 13.8 14.2 11.1 84 1.4 CALM 0 0 0 0 1023.2 1023.2 0.0
29/07:30am 11.3 11.5 10.4 94 0.5 CALM 0 2 0 1 1023.2 1023.2 0.0
29/07:00am 10.2 10.1 9.4 95 0.4 CALM 0 0 0 0 1023.1 1023.1 0.0
29/06:30am 9.1 8.7 8.3 95 0.4 CALM 0 0 0 0 1022.9 1022.9 0.0
29/06:00am 9.7 9.5 8.9 95 0.4 CALM 0 0 0 0 1022.6 1022.6 0.0
29/05:30am 9.3 8.9 8.4 94 0.4 CALM 0 0 0 0 1022.3 1022.3 0.0
29/05:00am 9.8 9.6 8.9 94 0.4 CALM 0 0 0 0 1022.1 1022.1 0.0
29/04:30am 9.8 9.6 8.9 94 0.4 CALM 0 0 0 0 1021.9 1021.9 0.0
29/04:00am 9.7 9.4 8.8 94 0.4 CALM 0 0 0 0 1021.8 1021.8 0.0
29/03:30am 10.0 9.8 9.1 94 0.4 CALM 0 0 0 0 1021.8 1021.8 0.0
29/03:00am 9.8 9.5 8.7 93 0.5 CALM 0 0 0 0 1022.0 1022.0 0.0
29/02:30am 10.3 10.2 9.4 94 0.4 CALM 0 0 0 0 1022.0 1022.0 0.0
29/02:00am 10.1 9.9 9.0 93 0.5 CALM 0 0 0 0 1022.1 1022.1 0.0
29/01:30am 10.3 10.1 9.2 93 0.5 CALM 0 0 0 0 1022.2 1022.2 0.0
29/01:00am 10.7 10.6 9.6 93 0.6 CALM 0 0 0 0 1022.4 1022.4 0.0
29/12:30am 10.7 10.5 9.1 90 0.8 CALM 0 0 0 0 1022.4 1022.4 0.0
29/12:00am 11.5 11.6 10.2 92 0.7 CALM 0 0 0 0 1022.6 1022.6 0.0
 
Date/Time
EST
Temp
°C
App
Temp
°C
Dew
Point
°C
Rel
Hum
%
Delta-T
°C
Wind Press
QNH
hPa
Press
MSL
hPa
Rain since
9am
mm
Dir  Spd
km/h
Gust
km/h
Spd
kts
Gust
kts
28/11:30pm 11.1 11.0 9.5 90 0.8 CALM 0 0 0 0 1022.8 1022.8 0.0
28/11:00pm 11.0 10.8 9.1 88 0.9 CALM 0 0 0 0 1023.1 1023.1 0.0
28/10:30pm 11.9 12.0 10.1 89 0.9 CALM 0 0 0 0 1023.2 1023.2 0.0
28/10:00pm 12.4 12.5 10.0 85 1.2 CALM 0 0 0 0 1023.5 1023.5 0.0
28/09:30pm 11.7 11.4 8.7 82 1.5 CALM 0 0 0 0 1023.5 1023.5 0.0
28/09:00pm 11.8 11.4 8.3 79 1.7 CALM 0 0 0 0 1023.6 1023.6 0.0
28/08:30pm 12.0 11.5 7.9 76 2.0 CALM 0 0 0 0 1023.6 1023.6 0.0
28/08:00pm 12.8 12.6 8.9 77 2.0 CALM 0 0 0 0 1023.7 1023.7 0.0
28/07:30pm 12.9 12.6 8.6 75 2.2 CALM 0 0 0 0 1023.6 1023.6 0.0
28/07:00pm 13.3 13.0 8.6 73 2.3 CALM 0 2 0 1 1023.5 1023.5 0.0
28/06:30pm 14.1 13.8 8.7 70 2.7 CALM 0 0 0 0 1023.1 1023.1 0.0
28/06:00pm 15.3 15.0 8.5 64 3.4 CALM 0 0 0 0 1022.8 1022.8 0.0
28/05:30pm 17.1 16.8 8.8 58 4.3 CALM 0 0 0 0 1022.4 1022.4 0.0
28/05:00pm 18.4 17.5 7.8 50 5.4 SE 2 6 1 3 1022.1 1022.1 0.0
28/04:30pm 19.7 19.0 8.4 48 5.9 ESE 2 6 1 3 1021.9 1021.9 0.0
28/04:00pm 20.2 18.6 6.2 40 7.0 SE 4 9 2 5 1021.8 1021.8 0.0
28/03:30pm 21.0 19.5 6.9 40 7.2 ESE 4 11 2 6 1021.7 1021.7 0.0
28/03:00pm 20.7 18.5 6.3 39 7.2 E 7 13 4 7 1021.6 1021.6 0.0
28/02:30pm 20.8 18.8 6.4 39 7.3 SE 6 9 3 5 1021.7 1021.7 0.0
28/02:00pm 21.0 19.0 6.2 38 7.4 E 6 9 3 5 1021.9 1021.9 0.0
28/01:30pm 20.5 18.4 6.5 40 7.1 ESE 7 9 4 5 1022.0 1022.0 0.0
28/01:00pm 21.0 19.1 5.0 35 7.8 SSW 4 9 2 5 1022.2 1022.2 0.0
28/12:30pm 20.7 19.1 6.3 39 7.3 SE 4 11 2 6 1022.6 1022.6 0.0
28/12:00pm 19.9 17.8 4.0 35 7.6 ESE 4 11 2 6 1023.0 1023.0 0.0
28/11:30am 20.2 17.7 3.9 34 7.8 WSW 6 13 3 7 1023.5 1023.5 0.0
28/11:00am 19.7 17.1 3.4 34 7.7 SSE 6 13 3 7 1024.0 1024.0 0.0
28/10:30am 19.3 16.4 2.6 33 7.7 ESE 7 17 4 9 1024.2 1024.2 0.0
28/10:00am 19.0 16.5 1.5 31 7.9 WSW 4 11 2 6 1024.1 1024.1 0.0
28/09:30am 17.9 15.1 3.0 37 6.9 SW 7 13 4 7 1024.2 1024.2 0.0
28/09:00am 17.6 15.1 3.5 39 6.5 SW 6 11 3 6 1024.0 1024.0 0.0
28/08:30am 16.4 14.1 2.8 40 6.2 SW 4 9 2 5 1023.7 1023.7 0.0
28/08:00am 15.3 12.7 3.1 44 5.5 SW 6 11 3 6 1023.4 1023.4 0.0
28/07:30am 14.2 12.2 2.5 45 5.2 S 2 7 1 4 1022.9 1022.9 0.0
28/07:00am 13.2 10.8 2.1 47 4.8 SSW 4 11 2 6 1022.5 1022.5 0.0
28/06:30am 11.9 9.5 2.4 52 4.1 SW 4 7 2 4 1022.3 1022.3 0.0
28/06:00am 12.0 9.6 2.2 51 4.2 SW 4 7 2 4 1022.0 1022.0 0.0
28/05:30am 11.9 9.6 2.6 53 4.1 SW 4 11 2 6 1021.8 1021.8 0.0
28/05:00am 12.1 10.5 2.3 51 4.2 CALM 0 4 0 2 1021.4 1021.4 0.0
28/04:30am 12.3 10.7 2.7 52 4.2 CALM 0 0 0 0 1021.1 1021.1 0.0
28/04:00am 12.3 10.3 2.5 51 4.3 W 2 6 1 3 1021.2 1021.2 0.0
28/03:30am 12.8 10.5 2.6 50 4.5 WSW 4 7 2 4 1021.2 1021.2 0.0
28/03:00am 12.6 10.7 3.0 52 4.2 WNW 2 6 1 3 1021.5 1021.5 0.0
28/02:30am 11.2 9.8 3.7 60 3.3 CALM 0 4 0 2 1021.4 1021.4 0.0
28/02:00am 8.4 6.7 4.0 74 1.9 E 2 6 1 3 1021.7 1021.7 0.0
28/01:30am 8.0 6.8 4.4 78 1.6 CALM 0 2 0 1 1021.9 1021.9 0.0
28/01:00am 7.7 6.5 4.8 82 1.3 CALM 0 4 0 2 1021.9 1021.9 0.0
28/12:30am 9.2 7.6 4.4 72 2.1 S 2 6 1 3 1021.7 1021.7 0.0
28/12:00am 9.8 8.0 3.5 65 2.7 SSE 2 4 1 2 1021.6 1021.6 0.0
 
Date/Time
EST
Temp
°C
App
Temp
°C
Dew
Point
°C
Rel
Hum
%
Delta-T
°C
Wind Press
QNH
hPa
Press
MSL
hPa
Rain since
9am
mm
Dir  Spd
km/h
Gust
km/h
Spd
kts
Gust
kts
27/11:30pm 12.4 10.9 4.9 60 3.5 WSW 2 2 1 1 1021.5 1021.5 0.0
27/11:00pm 9.8 8.3 4.8 71 2.2 SW 2 4 1 2 1021.7 1021.7 0.0
27/10:30pm 9.5 8.3 4.7 72 2.1 CALM 0 0 0 0 1021.7 1021.7 0.0
27/10:00pm 9.2 8.2 5.4 77 1.7 CALM 0 0 0 0 1021.5 1021.5 0.0
27/09:30pm 9.4 7.7 4.2 70 2.3 E 2 4 1 2 1021.1 1021.1 0.0
27/09:00pm 11.8 10.2 4.5 61 3.3 S 2 6 1 3 1020.7 1020.7 0.0
27/08:30pm 10.1 9.1 5.5 73 2.1 CALM 0 2 0 1 1020.3 1020.3 0.0
27/08:00pm 11.1 10.1 5.6 69 2.5 CALM 0 2 0 1 1020.1 1020.1 0.0
27/07:30pm 11.0 10.1 6.0 71 2.3 CALM 0 0 0 0 1019.8 1019.8 0.0
27/07:00pm 11.9 11.1 6.4 69 2.6 CALM 0 2 0 1 1019.4 1019.4 0.0
27/06:30pm 12.6 11.8 6.4 66 3.0 CALM 0 4 0 2 1019.0 1019.0 0.0
27/06:00pm 13.8 12.9 5.9 59 3.7 CALM 0 2 0 1 1018.6 1018.6 0.0
27/05:30pm 14.2 13.4 6.3 59 3.8 CALM 0 0 0 0 1018.2 1018.2 0.0
27/05:00pm 15.5 14.1 5.7 52 4.7 SW 2 4 1 2 1017.8 1017.8 0.0
27/04:30pm 17.4 15.8 4.7 43 6.1 W 2 4 1 2 1017.5 1017.5 0.0
27/04:00pm 18.4 16.6 3.5 37 7.0 WNW 2 4 1 2 1017.3 1017.3 0.0
27/03:30pm 18.3 16.2 3.8 38 6.8 W 4 4 2 2 1017.2 1017.2 0.0
27/03:00pm 18.3 16.6 4.1 39 6.7 W 2 7 1 4 1017.2 1017.2 0.0
27/02:30pm 18.1 16.0 3.9 39 6.7 WSW 4 6 2 3 1017.3 1017.3 0.0
27/02:00pm 18.6 16.3 2.9 35 7.3 W 4 7 2 4 1017.6 1017.6 0.0
27/01:30pm 18.7 15.9 2.9 35 7.3 WSW 7 15 4 8 1017.9 1017.9 0.0
27/01:00pm 18.8 16.2 3.0 35 7.3 WSW 6 11 3 6 1018.0 1018.0 0.0
27/12:30pm 18.6 16.6 4.4 39 6.8 WNW 4 9 2 5 1018.4 1018.4 0.0
27/12:00pm 18.1 15.6 3.9 39 6.7 SW 6 13 3 7 1018.5 1018.5 0.0
27/11:30am 18.2 15.0 3.3 37 6.9 WSW 9 20 5 11 1018.8 1018.8 0.0
27/11:00am 17.8 15.0 2.9 37 6.8 SW 7 13 4 7 1019.2 1019.2 0.0
27/10:30am 18.7 15.5 2.9 35 7.3 W 9 22 5 12 1019.7 1019.7 0.0
27/10:00am 18.3 16.2 4.1 39 6.7 WNW 4 9 2 5 1019.6 1019.6 0.0
27/09:30am 17.5 15.4 4.1 41 6.3 SW 4 7 2 4 1019.6 1019.6 0.0

Other Formats:

Comma delimited format used in spreadsheet applications
http://www.bom.gov.au/fwo/IDQ60801/IDQ60801.95572.axf

JavaScript Object Notation format (JSON) in row-major order
http://www.bom.gov.au/fwo/IDQ60801/IDQ60801.95572.json